Time;durP1;ratioP1;P1;durP2;ratioP2;P2;SDS_P1;SDS_P2;PMS_P1;PMS_P2;Temp;Humidity;BMP_temperature;BMP_pressure;BME280_temperature;BME280_humidity;BME280_pressure;Samples;Min_cycle;Max_cycle;Signal;HPM_P1;HPM_P2
2023/08/28 00:00:10;;;;;;;516.83;471.43;;;;;;;25.78;58.12;99167.22;299999;32;5310;-73
2023/08/28 00:00:20;;;;;;;514.03;468.35;;;;;;;25.81;58.64;99159.69;306122;32;3190;-72
2023/08/28 00:00:31;;;;;;;508.63;462.93;;;;;;;25.78;58.75;99161.84;305123;32;5666;-72
2023/08/28 00:00:41;;;;;;;505.42;459.90;;;;;;;25.76;58.70;99169.25;305017;32;6585;-72
2023/08/28 00:00:52;;;;;;;503.43;458.10;;;;;;;25.76;58.95;99164.72;302107;32;6431;-72
2023/08/28 00:01:05;;;;;;;505.20;459.92;;;;;;;25.78;59.08;99167.22;302503;32;1661;-72
2023/08/28 00:01:15;;;;;;;511.33;465.98;;;;;;;25.73;59.13;99165.06;303685;32;6259;-72
2023/08/28 00:01:26;;;;;;;516.10;470.70;;;;;;;25.76;59.04;99166.56;304604;32;5960;-72
2023/08/28 00:01:37;;;;;;;521.08;475.50;;;;;;;25.78;58.41;99165.38;305276;32;1296;-72
2023/08/28 00:01:47;;;;;;;517.42;472.02;;;;;;;25.81;58.95;99169.56;297744;33;2412;-72
2023/08/28 00:01:57;;;;;;;518.60;473.17;;;;;;;25.78;59.04;99168.06;294023;33;5100;-72
2023/08/28 00:02:09;;;;;;;516.22;470.88;;;;;;;25.73;59.38;99166.91;292766;33;6705;-72
2023/08/28 00:02:19;;;;;;;522.42;476.92;;;;;;;25.74;59.07;99161.38;295868;33;1127;-72
2023/08/28 00:02:29;;;;;;;524.23;478.70;;;;;;;25.78;59.07;99172.59;296441;33;7677;-72
2023/08/28 00:02:40;;;;;;;523.88;478.38;;;;;;;25.82;59.11;99168.56;295349;33;7463;-72
2023/08/28 00:02:50;;;;;;;523.83;478.23;;;;;;;25.85;59.08;99168.22;297817;33;825;-72
2023/08/28 00:03:01;;;;;;;521.00;475.48;;;;;;;25.87;59.04;99165.38;292765;33;9041;-72
2023/08/28 00:03:12;;;;;;;527.37;481.50;;;;;;;25.83;59.25;99170.22;292358;33;9382;-72
2023/08/28 00:03:23;;;;;;;521.20;475.55;;;;;;;25.84;59.21;99166.53;292346;33;8931;-72
2023/08/28 00:03:33;;;;;;;517.07;471.67;;;;;;;25.85;59.45;99168.22;292045;33;1022;-72
2023/08/28 00:03:44;;;;;;;510.90;465.70;;;;;;;25.87;59.29;99166.19;288257;33;8638;-72
2023/08/28 00:03:54;;;;;;;506.67;461.63;;;;;;;25.89;59.02;99172.22;289028;33;6218;-72
2023/08/28 00:04:05;;;;;;;508.48;463.38;;;;;;;25.86;59.26;99169.88;291880;33;1237;-73
2023/08/28 00:04:15;;;;;;;507.10;461.80;;;;;;;25.85;59.12;99168.22;288764;34;7130;-73
2023/08/28 00:06:29;;;;;;;484.42;439.30;;;;;;;25.62;59.79;99167.22;2498721;27;20480;-71
2023/08/28 00:06:39;;;;;;;528.53;482.83;;;;;;;25.61;59.98;99163.69;354313;27;854;-71
2023/08/28 00:06:51;;;;;;;526.37;480.67;;;;;;;25.66;60.01;99168.56;351488;28;1191;-71
2023/08/28 00:07:01;;;;;;;518.08;472.52;;;;;;;25.70;59.83;99165.38;348695;28;914;-71
2023/08/28 00:07:13;;;;;;;509.30;463.85;;;;;;;25.72;59.88;99162.53;347344;28;935;-71
2023/08/28 00:07:24;;;;;;;510.15;464.73;;;;;;;25.70;59.70;99168.06;348685;28;1519;-71
2023/08/28 00:07:35;;;;;;;521.60;475.98;;;;;;;25.67;59.90;99160.38;348622;28;1437;-71
2023/08/28 00:07:45;;;;;;;529.53;483.90;;;;;;;25.64;59.91;99160.69;348841;28;855;-72
2023/08/28 00:07:56;;;;;;;525.58;479.95;;;;;;;25.65;59.89;99164.22;348603;28;1029;-72
2023/08/28 00:08:07;;;;;;;528.80;483.13;;;;;;;25.66;59.76;99164.06;347621;28;1321;-72
2023/08/28 00:08:17;;;;;;;531.42;485.70;;;;;;;25.64;59.94;99162.56;350023;28;1380;-72
2023/08/28 00:08:27;;;;;;;533.05;487.42;;;;;;;25.61;60.23;99163.69;351451;28;906;-72
2023/08/28 00:08:38;;;;;;;523.60;478.23;;;;;;;25.59;60.34;99157.66;350087;28;863;-71
2023/08/28 00:08:48;;;;;;;520.83;475.57;;;;;;;25.60;60.13;99158.50;351463;28;894;-71
2023/08/28 00:08:58;;;;;;;520.38;475.08;;;;;;;25.58;60.32;99157.81;350176;28;2874;-71
2023/08/28 00:09:09;;;;;;;515.03;469.77;;;;;;;25.55;60.53;99166.25;347541;28;4720;-71
2023/08/28 00:09:19;;;;;;;508.15;462.92;;;;;;;25.54;60.68;99154.69;345307;28;5725;-72
2023/08/28 00:09:30;;;;;;;512.73;467.10;;;;;;;25.55;60.24;99150.16;345782;28;1797;-72
2023/08/28 00:09:40;;;;;;;510.67;464.93;;;;;;;25.58;60.40;99157.81;345656;28;3180;-72
2023/08/28 00:09:51;;;;;;;508.48;462.83;;;;;;;25.60;60.15;99155.81;346182;28;1355;-72
2023/08/28 00:10:02;;;;;;;508.40;463.00;;;;;;;25.60;60.24;99161.19;347099;28;1330;-72
2023/08/28 00:10:12;;;;;;;509.05;463.75;;;;;;;25.57;60.32;99158.84;347269;28;923;-73
2023/08/28 00:10:23;;;;;;;506.03;460.73;;;;;;;25.50;60.91;99151.50;347751;28;1187;-72
2023/08/28 00:10:33;;;;;;;504.08;458.73;;;;;;;25.48;60.54;99156.19;347163;28;827;-72
2023/08/28 00:10:44;;;;;;;507.27;461.87;;;;;;;25.48;60.94;99153.50;346069;28;798;-72
2023/08/28 00:10:54;;;;;;;505.65;460.42;;;;;;;25.40;60.98;99156.19;346157;28;1322;-72
2023/08/28 00:11:05;;;;;;;503.10;458.13;;;;;;;25.39;61.41;99153.69;346171;28;3404;-72
2023/08/28 00:11:15;;;;;;;500.75;455.73;;;;;;;25.38;61.19;99155.53;345859;28;872;-72
2023/08/28 00:11:26;;;;;;;499.27;454.13;;;;;;;25.37;61.41;99153.84;346466;28;1336;-72
2023/08/28 00:11:36;;;;;;;497.60;452.40;;;;;;;25.38;61.36;99150.16;348677;28;1096;-72
2023/08/28 00:11:47;;;;;;;503.40;458.10;;;;;;;25.36;61.44;99152.19;347264;28;1344;-72
2023/08/28 00:11:57;;;;;;;502.88;457.60;;;;;;;25.41;61.37;99151.66;348517;28;1222;-72
2023/08/28 00:12:07;;;;;;;512.37;466.77;;;;;;;25.43;61.08;99155.84;345805;28;1326;-72
2023/08/28 00:12:18;;;;;;;504.30;458.90;;;;;;;25.46;60.90;99155.53;347122;28;1528;-72
2023/08/28 00:12:28;;;;;;;499.00;453.83;;;;;;;25.46;60.98;99155.53;347430;28;796;-72
2023/08/28 00:12:40;;;;;;;494.73;449.80;;;;;;;25.45;60.97;99155.69;349211;28;1664;-72
2023/08/28 00:12:51;;;;;;;500.85;455.63;;;;;;;25.43;61.23;99152.34;349460;28;1209;-72
2023/08/28 00:13:02;;;;;;;509.92;464.52;;;;;;;25.42;61.27;99151.50;341683;28;1429;-72
2023/08/28 00:13:13;;;;;;;503.10;457.88;;;;;;;25.39;61.37;99151.84;341984;28;1572;-72
2023/08/28 00:13:23;;;;;;;493.00;448.00;;;;;;;25.39;61.00;99157.19;342517;28;876;-72
2023/08/28 00:13:34;;;;;;;492.93;447.70;;;;;;;25.39;61.51;99157.19;340797;28;821;-72
2023/08/28 00:13:44;;;;;;;500.58;455.08;;;;;;;25.41;61.54;99149.84;344629;28;792;-72
2023/08/28 00:13:54;;;;;;;503.77;457.97;;;;;;;25.43;61.60;99153.19;342137;28;807;-71
2023/08/28 00:14:05;;;;;;;506.45;460.90;;;;;;;25.43;61.42;99150.50;339521;28;852;-72
2023/08/28 00:14:15;;;;;;;501.97;456.60;;;;;;;25.43;61.39;99155.03;340477;29;1417;-72
2023/08/28 00:14:26;;;;;;;505.33;460.15;;;;;;;25.43;61.42;99152.34;342302;28;1367;-72
2023/08/28 00:14:36;;;;;;;506.03;460.77;;;;;;;25.45;61.36;99150.34;340860;28;1495;-72
2023/08/28 00:14:46;;;;;;;512.70;467.30;;;;;;;25.46;61.34;99152.84;340200;29;1441;-71
2023/08/28 00:14:57;;;;;;;506.92;461.73;;;;;;;25.48;61.48;99150.84;338802;29;1293;-72
2023/08/28 00:15:08;;;;;;;495.80;450.60;;;;;;;25.49;61.23;99151.66;339724;29;1584;-72
2023/08/28 00:15:18;;;;;;;489.50;444.48;;;;;;;25.50;61.10;99145.31;338023;28;1474;-72
2023/08/28 00:15:29;;;;;;;496.65;451.40;;;;;;;25.51;61.34;99147.81;340660;29;937;-71
2023/08/28 00:15:39;;;;;;;502.33;457.13;;;;;;;25.50;61.43;99148.81;340124;29;1137;-71
2023/08/28 00:15:50;;;;;;;508.52;463.08;;;;;;;25.52;61.16;99151.34;339561;29;1312;-71
2023/08/28 00:16:00;;;;;;;511.07;465.67;;;;;;;25.52;61.18;99152.16;339140;29;832;-71
2023/08/28 00:16:10;;;;;;;508.75;463.45;;;;;;;25.55;61.05;99150.16;337870;29;963;-71
2023/08/28 00:16:21;;;;;;;501.80;456.83;;;;;;;25.57;61.07;99154.31;336826;29;1650;-71
2023/08/28 00:16:31;;;;;;;494.60;449.73;;;;;;;25.60;61.50;99153.13;335277;29;1003;-71
2023/08/28 00:16:41;;;;;;;497.17;452.08;;;;;;;25.61;60.94;99152.97;337499;28;1775;-71
2023/08/28 00:16:52;;;;;;;502.13;456.73;;;;;;;25.64;60.92;99149.97;336381;29;1804;-71
2023/08/28 00:17:05;;;;;;;513.53;467.75;;;;;;;25.67;60.80;99154.16;333985;29;2048;-71
2023/08/28 00:17:16;;;;;;;519.42;473.67;;;;;;;25.66;60.76;99153.34;336649;29;923;-71
2023/08/28 00:17:27;;;;;;;518.92;473.25;;;;;;;25.58;61.30;99156.00;334351;29;2258;-71
2023/08/28 00:17:37;;;;;;;508.60;463.10;;;;;;;25.53;61.33;99153.84;334643;29;1682;-71
2023/08/28 00:17:48;;;;;;;504.67;459.30;;;;;;;25.50;61.76;99153.34;334029;29;920;-71
2023/08/28 00:17:58;;;;;;;502.88;457.73;;;;;;;25.48;61.47;99153.50;332728;29;917;-71
2023/08/28 00:18:09;;;;;;;505.43;460.30;;;;;;;25.45;61.70;99153.00;329350;29;1190;-71
2023/08/28 00:18:19;;;;;;;507.50;462.38;;;;;;;25.43;61.56;99153.19;326739;30;1802;-72
2023/08/28 00:18:30;;;;;;;510.13;464.87;;;;;;;25.42;61.91;99150.66;326876;30;2791;-72
2023/08/28 00:18:40;;;;;;;509.88;464.60;;;;;;;25.39;61.97;99151.84;325554;29;5661;-72
2023/08/28 00:18:51;;;;;;;507.73;462.47;;;;;;;25.38;62.27;99152.00;328307;29;3500;-72
2023/08/28 00:19:01;;;;;;;510.20;464.70;;;;;;;25.37;62.11;99153.84;331496;29;878;-72
2023/08/28 00:19:12;;;;;;;510.40;464.80;;;;;;;25.36;61.87;99152.19;330924;29;2524;-72
2023/08/28 00:19:22;;;;;;;505.55;460.00;;;;;;;25.35;61.97;99147.81;329722;29;2617;-72
2023/08/28 00:19:33;;;;;;;503.27;458.07;;;;;;;25.35;62.06;99150.50;330231;29;2787;-72
2023/08/28 00:19:44;;;;;;;505.13;459.85;;;;;;;25.34;62.45;99156.88;330410;29;968;-72
2023/08/28 00:19:54;;;;;;;509.80;464.40;;;;;;;25.33;62.19;99152.50;329086;29;1936;-72
2023/08/28 00:20:08;;;;;;;499.50;454.23;;;;;;;25.35;62.12;99155.84;329804;29;1567;-72
2023/08/28 00:20:18;;;;;;;486.52;441.50;;;;;;;25.36;62.23;99152.19;333500;29;1911;-72
2023/08/28 00:20:29;;;;;;;488.63;443.60;;;;;;;25.37;62.25;99159.22;330491;29;1150;-72
2023/08/28 00:20:40;;;;;;;490.35;445.30;;;;;;;25.38;62.06;99147.50;327363;29;2607;-72
2023/08/28 00:20:50;;;;;;;493.75;448.70;;;;;;;25.41;62.10;99147.16;328088;29;2766;-72
2023/08/28 00:21:01;;;;;;;491.97;446.83;;;;;;;25.44;62.04;99154.84;328960;29;1597;-72
2023/08/28 00:21:12;;;;;;;494.83;449.63;;;;;;;25.46;62.07;99154.69;328131;30;3365;-72
2023/08/28 00:21:22;;;;;;;499.33;453.83;;;;;;;25.48;61.91;99150.84;332073;29;3696;-72
2023/08/28 00:21:33;;;;;;;500.97;455.47;;;;;;;25.50;61.79;99154.19;333541;29;3526;-71
2023/08/28 00:21:43;;;;;;;506.05;460.45;;;;;;;25.53;61.69;99159.19;330365;29;1170;-71
2023/08/28 00:21:53;;;;;;;499.97;454.80;;;;;;;25.55;61.80;99158.19;329447;29;3256;-71
2023/08/28 00:22:04;;;;;;;500.63;455.50;;;;;;;25.53;61.62;99148.47;330225;29;2504;-71
2023/08/28 00:22:14;;;;;;;499.83;454.70;;;;;;;25.53;61.64;99153.00;331617;29;914;-71
2023/08/28 00:22:25;;;;;;;507.03;461.67;;;;;;;25.50;61.83;99148.81;330329;29;2189;-71
2023/08/28 00:22:36;;;;;;;511.23;465.85;;;;;;;25.45;62.04;99150.34;327752;29;2929;-71
2023/08/28 00:22:46;;;;;;;510.50;465.30;;;;;;;25.46;62.22;99152.84;327891;30;1258;-71
2023/08/28 00:22:57;;;;;;;509.35;464.05;;;;;;;25.47;62.18;99149.16;329177;29;3461;-71
2023/08/28 00:23:08;;;;;;;506.33;461.02;;;;;;;25.45;62.42;99151.16;327699;30;4228;-71
2023/08/28 00:23:18;;;;;;;505.60;460.20;;;;;;;25.44;62.34;99149.50;328534;29;4217;-72
2023/08/28 00:23:32;;;;;;;509.17;463.73;;;;;;;25.44;62.12;99154.84;329060;30;1489;-72
2023/08/28 00:23:42;;;;;;;511.13;465.65;;;;;;;25.45;62.20;99156.53;322916;30;4455;-72
2023/08/28 00:23:52;;;;;;;496.83;451.67;;;;;;;25.44;62.71;99154.84;323533;30;4594;-72
2023/08/28 00:24:04;;;;;;;498.37;452.93;;;;;;;25.44;62.84;99154.00;322332;30;4799;-72
2023/08/28 00:24:14;;;;;;;499.73;454.33;;;;;;;25.45;62.74;99151.16;319530;30;1448;-72
2023/08/28 00:24:24;;;;;;;509.93;464.43;;;;;;;25.47;62.80;99146.47;318864;30;3360;-72
2023/08/28 00:24:35;;;;;;;505.27;460.02;;;;;;;25.49;62.67;99149.81;319782;30;3142;-72
2023/08/28 00:24:45;;;;;;;504.80;459.40;;;;;;;25.50;62.36;99154.19;321814;30;1277;-72
2023/08/28 00:24:55;;;;;;;504.15;458.65;;;;;;;25.50;62.40;99154.19;317707;30;4130;-72
2023/08/28 00:25:07;;;;;;;505.87;460.53;;;;;;;25.51;62.52;99155.03;318170;30;5229;-72
2023/08/28 00:25:18;;;;;;;509.65;463.88;;;;;;;25.51;62.70;99153.19;317906;31;1231;-72
2023/08/28 00:25:28;;;;;;;513.07;467.10;;;;;;;25.53;62.50;99151.16;307117;32;1910;-71
2023/08/28 00:25:38;;;;;;;512.97;467.08;;;;;;;25.55;62.67;99155.53;305953;32;5983;-71
2023/08/28 00:25:49;;;;;;;502.40;457.13;;;;;;;25.57;62.23;99150.78;306403;31;6233;-72
2023/08/28 00:25:59;;;;;;;500.00;454.87;;;;;;;25.59;62.41;99148.78;303857;32;892;-72
2023/08/28 00:26:10;;;;;;;505.60;460.33;;;;;;;25.60;62.35;99153.13;300714;32;6531;-72
2023/08/28 00:26:20;;;;;;;520.35;474.63;;;;;;;25.60;62.34;99155.81;301222;32;6292;-72
2023/08/28 00:26:30;;;;;;;520.60;474.67;;;;;;;25.61;62.53;99152.97;305213;32;935;-72
2023/08/28 00:26:41;;;;;;;523.97;477.77;;;;;;;25.62;62.28;99153.81;303007;32;4661;-72
2023/08/28 00:26:51;;;;;;;518.10;472.10;;;;;;;25.63;62.13;99152.81;301661;32;4886;-72
2023/08/28 00:27:02;;;;;;;511.60;465.97;;;;;;;25.58;62.35;99149.78;303766;32;1253;-72
2023/08/28 00:27:12;;;;;;;505.75;460.33;;;;;;;25.54;62.73;99149.31;305311;32;5656;-71
2023/08/28 00:27:23;;;;;;;507.87;462.43;;;;;;;25.53;62.55;99151.16;303806;32;8316;-71
2023/08/28 00:27:33;;;;;;;509.40;463.83;;;;;;;25.52;62.43;99152.16;301941;32;11815;-71
2023/08/28 00:27:43;;;;;;;507.00;461.50;;;;;;;25.53;62.58;99153.00;299960;32;806;-71
2023/08/28 00:27:54;;;;;;;503.20;457.40;;;;;;;25.48;63.02;99150.84;300003;32;8334;-71
2023/08/28 00:28:04;;;;;;;499.17;453.38;;;;;;;25.44;62.82;99146.81;296299;32;8300;-71
2023/08/28 00:28:15;;;;;;;498.80;453.07;;;;;;;25.37;62.72;99148.50;298137;33;3341;-70
2023/08/28 00:28:25;;;;;;;495.65;450.23;;;;;;;25.30;63.61;99144.81;300721;32;8306;-70
2023/08/28 00:28:35;;;;;;;495.33;450.13;;;;;;;25.31;63.02;99149.16;301025;32;8680;-70
2023/08/28 00:28:46;;;;;;;492.20;447.00;;;;;;;25.31;63.63;99148.31;301957;32;1381;-71
2023/08/28 00:28:56;;;;;;;491.33;446.15;;;;;;;25.28;63.46;99149.50;302360;32;6239;-71
2023/08/28 00:29:06;;;;;;;495.77;450.47;;;;;;;25.27;63.70;99153.19;303661;32;6090;-71
2023/08/28 00:29:17;;;;;;;492.92;447.88;;;;;;;25.28;63.46;99149.50;303036;32;850;-71
2023/08/28 00:29:27;;;;;;;492.53;447.70;;;;;;;25.29;63.28;99145.81;301948;32;7040;-71
2023/08/28 00:29:38;;;;;;;483.10;438.43;;;;;;;25.31;63.67;99151.00;302803;32;10452;-71
2023/08/28 00:29:48;;;;;;;491.80;446.83;;;;;;;25.30;63.42;99152.00;298231;32;15171;-71
2023/08/28 00:29:58;;;;;;;496.33;451.03;;;;;;;25.26;63.50;99143.47;295752;33;828;-71
2023/08/28 00:30:09;;;;;;;502.17;456.70;;;;;;;25.23;63.81;99151.00;292310;33;12253;-71
2023/08/28 00:30:20;;;;;;;497.63;452.23;;;;;;;25.25;63.78;99149.81;294710;32;10410;-71
2023/08/28 00:30:30;;;;;;;501.37;456.07;;;;;;;25.26;63.62;99148.81;302009;32;928;-71
2023/08/28 00:32:24;;;;;;;467.08;422.55;;;;;;;25.28;63.77;99148.66;2486817;27;20966;-71
2023/08/28 00:32:34;;;;;;;497.80;452.90;;;;;;;25.25;63.73;99143.63;349974;28;1479;-71
2023/08/28 00:32:45;;;;;;;494.33;449.48;;;;;;;25.23;63.82;99146.47;348713;28;1257;-71
2023/08/28 00:32:55;;;;;;;500.10;454.97;;;;;;;25.23;63.96;99145.63;348687;28;1569;-71
2023/08/28 00:33:06;;;;;;;504.73;459.27;;;;;;;25.22;63.95;99154.69;350097;28;863;-71
2023/08/28 00:33:16;;;;;;;502.85;457.35;;;;;;;25.17;63.90;99147.16;351467;28;1254;-71
2023/08/28 00:33:26;;;;;;;497.10;451.90;;;;;;;25.18;64.22;99146.13;350326;28;1197;-71
2023/08/28 00:33:37;;;;;;;493.70;448.55;;;;;;;25.17;64.12;99155.19;347092;28;1070;-71
2023/08/28 00:33:47;;;;;;;494.67;449.47;;;;;;;25.18;64.04;99146.13;345968;28;897;-71
2023/08/28 00:33:57;;;;;;;504.43;458.93;;;;;;;25.20;63.97;99146.81;347200;28;1200;-71
2023/08/28 00:34:08;;;;;;;506.00;460.65;;;;;;;25.17;64.30;99155.19;348779;28;994;-71
2023/08/28 00:34:18;;;;;;;510.90;465.40;;;;;;;25.12;64.50;99149.50;348652;28;891;-71
2023/08/28 00:34:29;;;;;;;502.13;456.85;;;;;;;25.07;64.74;99151.84;348735;28;1140;-71
2023/08/28 00:34:39;;;;;;;501.37;456.07;;;;;;;25.03;64.86;99150.50;348634;28;1692;-71
2023/08/28 00:34:49;;;;;;;496.93;451.83;;;;;;;24.98;65.00;99147.50;348575;28;1077;-71
2023/08/28 00:35:00;;;;;;;497.27;452.30;;;;;;;24.99;64.91;99149.16;348596;28;1191;-71
2023/08/28 00:35:10;;;;;;;493.33;448.47;;;;;;;24.98;65.20;99152.84;349809;28;1308;-71
2023/08/28 00:35:20;;;;;;;488.15;443.45;;;;;;;25.01;65.00;99150.66;348789;28;919;-71
2023/08/28 00:35:31;;;;;;;480.00;435.40;;;;;;;25.04;64.84;99142.31;348746;28;899;-71
2023/08/28 00:35:42;;;;;;;481.00;436.20;;;;;;;24.99;65.16;99147.31;348667;28;1214;-71
2023/08/28 00:35:53;;;;;;;492.38;447.15;;;;;;;24.97;65.01;99145.81;349906;28;1224;-71
2023/08/28 00:36:03;;;;;;;492.33;447.20;;;;;;;24.95;65.16;99145.94;351109;28;949;-70
2023/08/28 00:36:15;;;;;;;487.83;442.98;;;;;;;24.92;64.74;99153.47;350968;28;1229;-70
2023/08/28 00:36:25;;;;;;;483.42;438.67;;;;;;;24.92;65.21;99150.78;350114;28;879;-70
2023/08/28 00:36:36;;;;;;;495.40;450.23;;;;;;;24.94;65.33;99143.44;351459;28;1061;-70
2023/08/28 00:36:46;;;;;;;496.97;451.73;;;;;;;24.97;65.61;99140.47;348628;28;1074;-72
2023/08/28 00:36:56;;;;;;;498.73;453.27;;;;;;;24.96;65.66;99149.50;347021;28;1142;-72
2023/08/28 00:37:07;;;;;;;489.00;444.00;;;;;;;25.00;65.56;99145.47;344787;28;3116;-72
2023/08/28 00:37:17;;;;;;;492.38;447.33;;;;;;;25.01;65.49;99148.00;342911;28;4721;-71
2023/08/28 00:37:28;;;;;;;494.77;449.87;;;;;;;25.04;65.14;99146.81;345846;28;5453;-71
2023/08/28 00:37:38;;;;;;;499.20;453.90;;;;;;;25.04;65.22;99146.81;345960;28;927;-71
2023/08/28 00:37:49;;;;;;;491.23;446.15;;;;;;;25.04;65.15;99144.16;344256;28;5649;-71
2023/08/28 00:37:59;;;;;;;490.20;445.17;;;;;;;25.04;64.95;99142.31;344283;28;1073;-71
2023/08/28 00:38:10;;;;;;;486.00;441.07;;;;;;;25.06;65.32;99139.47;345913;28;947;-71
2023/08/28 00:38:20;;;;;;;486.90;441.85;;;;;;;25.05;65.30;99143.16;347111;28;1377;-71
2023/08/28 00:38:31;;;;;;;490.77;445.50;;;;;;;25.03;65.21;99147.84;345825;28;1005;-71
2023/08/28 00:38:41;;;;;;;491.80;446.67;;;;;;;24.97;65.67;99143.13;345172;28;1394;-70
2023/08/28 00:38:52;;;;;;;494.10;448.90;;;;;;;24.93;65.73;99147.13;343195;28;801;-70
2023/08/28 00:39:02;;;;;;;490.88;445.98;;;;;;;24.90;65.61;99142.09;342894;28;1613;-70
2023/08/28 00:39:13;;;;;;;489.00;444.13;;;;;;;24.90;65.86;99144.75;343245;28;1019;-70
2023/08/28 00:39:23;;;;;;;481.48;436.77;;;;;;;24.88;65.97;99139.56;344629;28;915;-70
2023/08/28 00:39:34;;;;;;;485.53;440.60;;;;;;;24.83;65.97;99153.47;344646;28;829;-70
2023/08/28 00:39:44;;;;;;;482.38;437.50;;;;;;;24.81;66.38;99147.44;344174;28;1461;-70
2023/08/28 00:39:54;;;;;;;485.77;440.50;;;;;;;24.80;66.41;99140.41;343064;28;1555;-70
2023/08/28 00:40:07;;;;;;;483.90;438.60;;;;;;;24.81;66.10;99144.75;344492;28;1213;-70
2023/08/28 00:40:17;;;;;;;487.38;442.02;;;;;;;24.81;66.25;99142.06;344027;28;1401;-70
2023/08/28 00:40:28;;;;;;;495.10;449.80;;;;;;;24.81;66.40;99141.22;344472;28;1451;-70
2023/08/28 00:40:39;;;;;;;490.98;445.88;;;;;;;24.82;66.42;99138.41;345037;28;1131;-70
2023/08/28 00:40:50;;;;;;;495.58;450.27;;;;;;;24.81;66.01;99142.06;340302;29;2207;-70
2023/08/28 00:41:00;;;;;;;492.03;446.93;;;;;;;24.82;66.20;99143.75;338125;29;1761;-70
2023/08/28 00:41:11;;;;;;;493.10;447.93;;;;;;;24.85;66.24;99137.22;332801;29;1189;-70
2023/08/28 00:41:21;;;;;;;492.10;446.90;;;;;;;24.87;65.92;99140.56;336469;29;1517;-70
2023/08/28 00:41:33;;;;;;;495.65;450.17;;;;;;;24.86;65.71;99137.06;334780;29;1247;-70
2023/08/28 00:41:44;;;;;;;494.17;448.80;;;;;;;24.87;66.33;99141.41;337564;29;1003;-72
2023/08/28 00:41:54;;;;;;;491.80;446.50;;;;;;;24.92;65.92;99146.28;335318;29;815;-72
2023/08/28 00:42:05;;;;;;;493.88;448.67;;;;;;;24.94;65.95;99138.06;338012;29;1388;-72
2023/08/28 00:42:15;;;;;;;498.47;453.27;;;;;;;24.96;66.08;99138.78;335926;29;1587;-72
2023/08/28 00:42:25;;;;;;;502.23;456.90;;;;;;;24.95;66.04;99148.63;335194;29;1297;-71
2023/08/28 00:42:36;;;;;;;497.48;452.08;;;;;;;24.95;66.15;99139.75;330139;29;2379;-71
2023/08/28 00:42:46;;;;;;;490.93;445.67;;;;;;;24.96;66.09;99139.63;328720;29;1923;-72
2023/08/28 00:42:57;;;;;;;493.33;448.15;;;;;;;24.93;66.13;99139.91;328994;30;819;-72
2023/08/28 00:43:08;;;;;;;496.73;451.60;;;;;;;24.94;66.06;99135.41;323084;30;920;-71
2023/08/28 00:43:18;;;;;;;493.27;448.23;;;;;;;24.94;66.14;99140.75;325209;30;2089;-71
2023/08/28 00:43:29;;;;;;;486.87;442.03;;;;;;;24.92;66.20;99135.56;324283;30;1861;-71
2023/08/28 00:43:39;;;;;;;483.23;438.60;;;;;;;24.93;65.92;99137.25;325575;30;816;-71
2023/08/28 00:43:50;;;;;;;483.63;439.00;;;;;;;24.93;66.24;99139.09;325017;30;1499;-71
2023/08/28 00:44:00;;;;;;;483.17;438.37;;;;;;;24.93;66.10;99133.72;325057;30;1322;-71
2023/08/28 00:44:11;;;;;;;489.65;444.55;;;;;;;24.91;66.37;99135.72;323119;30;1070;-72
2023/08/28 00:44:21;;;;;;;494.63;449.43;;;;;;;24.88;66.48;99132.38;323800;30;2502;-72
2023/08/28 00:44:32;;;;;;;493.05;448.13;;;;;;;24.87;66.63;99130.69;322551;30;2211;-72
2023/08/28 00:44:42;;;;;;;490.10;445.23;;;;;;;24.90;66.12;99139.41;322548;30;2314;-72
2023/08/28 00:44:52;;;;;;;484.00;439.02;;;;;;;24.93;66.05;99137.25;324205;30;1212;-72
2023/08/28 00:45:03;;;;;;;487.47;442.37;;;;;;;24.97;66.12;99140.47;322207;30;2504;-72
2023/08/28 00:45:13;;;;;;;484.75;439.70;;;;;;;24.95;66.19;99142.44;324114;30;2097;-72
2023/08/28 00:45:24;;;;;;;486.57;441.63;;;;;;;24.90;66.43;99142.09;323138;30;1328;-72
2023/08/28 00:45:41;;;;;;;480.35;435.58;;;;;;;24.84;66.60;99139.06;323659;30;2585;-72
2023/08/28 00:45:52;;;;;;;482.30;437.50;;;;;;;24.84;66.69;99136.38;325026;30;1956;-72
2023/08/28 00:46:02;;;;;;;483.57;438.73;;;;;;;24.87;66.72;99140.56;321410;30;1390;-71
2023/08/28 00:46:13;;;;;;;482.77;438.08;;;;;;;24.88;66.75;99145.75;321566;30;2078;-71
2023/08/28 00:46:23;;;;;;;482.73;437.98;;;;;;;24.90;67.09;99142.09;319749;30;3163;-71
2023/08/28 00:46:33;;;;;;;484.53;439.73;;;;;;;24.92;66.67;99140.09;320895;30;5275;-71
2023/08/28 00:46:44;;;;;;;481.57;436.80;;;;;;;24.93;66.45;99139.09;321806;30;3382;-71
2023/08/28 00:46:54;;;;;;;485.92;440.88;;;;;;;24.95;66.72;99139.75;320560;30;877;-71
2023/08/28 00:47:05;;;;;;;486.00;440.80;;;;;;;24.93;66.52;99139.09;319627;30;3415;-71
2023/08/28 00:47:16;;;;;;;488.27;443.17;;;;;;;24.91;66.76;99136.56;320246;30;3432;-71
2023/08/28 00:47:26;;;;;;;485.08;440.35;;;;;;;24.93;66.43;99139.91;320769;30;869;-71
2023/08/28 00:47:37;;;;;;;489.77;445.13;;;;;;;24.94;66.44;99140.75;317309;30;3017;-71
2023/08/28 00:47:47;;;;;;;491.80;447.00;;;;;;;24.94;66.12;99135.41;318182;30;3363;-71
2023/08/28 00:47:57;;;;;;;490.73;445.90;;;;;;;24.88;66.81;99136.91;318876;30;2590;-71
2023/08/28 00:48:12;;;;;;;481.88;437.13;;;;;;;24.88;66.58;99135.06;318292;31;1427;-71
2023/08/28 00:48:23;;;;;;;475.55;430.80;;;;;;;24.88;66.51;99137.72;316096;31;1234;-71
2023/08/28 00:48:33;;;;;;;469.17;424.57;;;;;;;24.93;66.48;99144.44;317289;30;2833;-71
2023/08/28 00:48:44;;;;;;;472.87;428.20;;;;;;;24.94;66.37;99135.41;316192;30;3247;-71
2023/08/28 00:48:54;;;;;;;474.58;429.98;;;;;;;24.92;66.63;99137.41;316047;31;1177;-71
2023/08/28 00:49:04;;;;;;;476.87;432.17;;;;;;;24.92;66.70;99137.41;312532;31;3997;-71
2023/08/28 00:49:15;;;;;;;482.25;437.40;;;;;;;24.94;66.76;99140.75;311542;31;4495;-71
2023/08/28 00:49:25;;;;;;;488.17;442.97;;;;;;;24.95;66.72;99137.91;314962;31;1012;-71
2023/08/28 00:49:36;;;;;;;491.75;446.63;;;;;;;24.96;66.46;99134.25;316171;31;4686;-71
2023/08/28 00:49:46;;;;;;;485.80;440.93;;;;;;;24.99;66.60;99138.44;317394;30;4221;-71
2023/08/28 00:49:56;;;;;;;488.83;443.93;;;;;;;25.00;66.54;99134.78;317386;31;1513;-71
2023/08/28 00:50:07;;;;;;;487.45;442.52;;;;;;;25.04;66.80;99141.47;315260;31;4053;-71
2023/08/28 00:50:17;;;;;;;490.53;445.53;;;;;;;25.08;66.35;99142.81;316653;30;3039;-71
2023/08/28 00:50:28;;;;;;;489.05;444.02;;;;;;;25.08;66.40;99140.97;311610;31;3168;-71
2023/08/28 00:50:39;;;;;;;486.10;441.05;;;;;;;25.08;66.20;99135.63;306069;32;1249;-71
2023/08/28 00:50:49;;;;;;;487.37;442.23;;;;;;;25.11;65.99;99134.44;308328;31;3975;-71
2023/08/28 00:51:00;;;;;;;490.10;445.00;;;;;;;25.12;66.11;99133.44;306398;32;4693;-71
2023/08/28 00:51:10;;;;;;;494.30;449.17;;;;;;;25.11;66.08;99134.44;308159;32;1325;-71
2023/08/28 00:51:21;;;;;;;493.65;448.67;;;;;;;25.11;66.65;99134.44;302970;32;5373;-72
2023/08/28 00:51:31;;;;;;;495.03;450.03;;;;;;;25.09;66.57;99133.78;301181;32;6183;-70
2023/08/28 00:51:42;;;;;;;491.58;446.65;;;;;;;25.06;66.89;99139.47;301980;32;1589;-71
2023/08/28 00:51:52;;;;;;;490.00;445.03;;;;;;;25.03;66.98;99134.44;299321;33;877;-71
2023/08/28 00:52:03;;;;;;;492.05;447.02;;;;;;;25.03;67.04;99140.63;294175;33;6206;-70
2023/08/28 00:52:13;;;;;;;488.83;443.95;;;;;;;25.05;66.87;99138.63;291928;33;6228;-70
2023/08/28 00:52:24;;;;;;;486.30;441.43;;;;;;;25.07;66.72;99143.81;291927;33;804;-71
2023/08/28 00:52:34;;;;;;;477.90;433.27;;;;;;;25.10;66.79;99140.81;289722;33;4539;-71
2023/08/28 00:52:45;;;;;;;486.98;442.08;;;;;;;25.10;66.58;99138.13;290071;33;4898;-71